Terminal Aerodrome Forecast
Issued by NWS Pendleton, OR

Home | Current Version | Previous Version | Text Only | Print | Product List | Glossary On
Versions: 1 2 3 4 5 6 7 8 9 10 11 12 13 14 15 16 17 18 19
979
FTUS46 KPDT 180635 AAB
TAFPDT
TAF AMD
KPDT 180635Z 1807/1906 18008G15KT P6SM FEW045 OVC060
     FM181200 25008G15KT P6SM VCSH BKN035 BKN050
     FM182100 33008G15KT 5SM -SHSN OVC025=

USA.gov is the U.S. government's official web portal to all federal, state and local government web resources and services.